GLO1841 SBVT-SBGL
Flight info
| Callsign | GLO1841 |
|---|---|
| Flight time | 0h 47m |
| Altitude | 30000 |
| Route | USVAG UN401 MOLSU |
| Aircraft | B738/M-SDE2E3FGHIRWXY/LB1 |
Departure
| Time | 2026-04-20 11:42 |
|---|---|
| Airport | Eurico de Aguiar Salles International Airport (SBVT) |
Arrival
| Time | 2026-04-20 12:29 |
|---|---|
| Airport | Rio Galeão – Tom Jobim International Airport (SBGL) |
| Time | Latitude | Longitude | Altitude | Speed | Heading |
|---|---|---|---|---|---|
| 2026-04-20 11:18 | -20.26574 | -40.28158 | 39 ft | 0 kts | 261° |
| 2026-04-20 11:30 | -20.26573 | -40.28155 | 39 ft | 2 kts | 261° |
| 2026-04-20 11:30 | -20.26571 | -40.28138 | 39 ft | 2 kts | 261° |
| 2026-04-20 11:30 | -20.26568 | -40.28120 | 36 ft | 2 kts | 261° |
| 2026-04-20 11:31 | -20.26566 | -40.28103 | 36 ft | 2 kts | 261° |
| 2026-04-20 11:31 | -20.26563 | -40.28086 | 38 ft | 2 kts | 261° |
| 2026-04-20 11:31 | -20.26561 | -40.28069 | 39 ft | 2 kts | 261° |
| 2026-04-20 11:31 | -20.26559 | -40.28052 | 41 ft | 2 kts | 284° |
| 2026-04-20 11:32 | -20.26568 | -40.28038 | 41 ft | 2 kts | 330° |
| 2026-04-20 11:32 | -20.26583 | -40.28032 | 41 ft | 1 kts | 351° |
| 2026-04-20 11:34 | -20.26567 | -40.28035 | 41 ft | 6 kts | 351° |
| 2026-04-20 11:35 | -20.26516 | -40.28041 | 39 ft | 8 kts | 354° |
| 2026-04-20 11:35 | -20.26455 | -40.28048 | 40 ft | 9 kts | 354° |
| 2026-04-20 11:35 | -20.26394 | -40.28057 | 39 ft | 9 kts | 351° |
| 2026-04-20 11:35 | -20.26326 | -40.28068 | 37 ft | 11 kts | 351° |
| 2026-04-20 11:36 | -20.26236 | -40.28081 | 38 ft | 15 kts | 352° |
| 2026-04-20 11:36 | -20.26123 | -40.28096 | 37 ft | 18 kts | 353° |
| 2026-04-20 11:36 | -20.25993 | -40.28115 | 34 ft | 19 kts | 352° |
| 2026-04-20 11:36 | -20.25863 | -40.28133 | 34 ft | 18 kts | 352° |
| 2026-04-20 11:37 | -20.25738 | -40.28152 | 32 ft | 18 kts | 352° |
| 2026-04-20 11:37 | -20.25501 | -40.28187 | 29 ft | 17 kts | 352° |
| 2026-04-20 11:37 | -20.25393 | -40.28199 | 27 ft | 15 kts | 6° |
| 2026-04-20 11:38 | -20.25308 | -40.28158 | 28 ft | 0 kts | 31° |
| 2026-04-20 11:39 | -20.25306 | -40.28156 | 28 ft | 2 kts | 32° |
| 2026-04-20 11:39 | -20.25274 | -40.28135 | 29 ft | 8 kts | 32° |
| 2026-04-20 11:39 | -20.25210 | -40.28092 | 29 ft | 14 kts | 31° |
| 2026-04-20 11:39 | -20.25103 | -40.28072 | 28 ft | 17 kts | 352° |
| 2026-04-20 11:40 | -20.24984 | -40.28089 | 27 ft | 17 kts | 352° |
| 2026-04-20 11:40 | -20.24887 | -40.28103 | 30 ft | 13 kts | 353° |
| 2026-04-20 11:40 | -20.24804 | -40.28081 | 25 ft | 12 kts | 0° |
| 2026-04-20 11:40 | -20.24780 | -40.28106 | 26 ft | 1 kts | 260° |
| 2026-04-20 11:41 | -20.24785 | -40.28108 | 26 ft | 1 kts | 219° |
| 2026-04-20 11:41 | -20.24790 | -40.28111 | 26 ft | 1 kts | 206° |
| 2026-04-20 11:41 | -20.24795 | -40.28111 | 25 ft | 1 kts | 181° |
| 2026-04-20 11:41 | -20.24797 | -40.28111 | 25 ft | 0 kts | 175° |
| 2026-04-20 11:42 | -20.24881 | -40.28101 | 29 ft | 45 kts | 173° |
| 2026-04-20 11:42 | -20.25470 | -40.28015 | 34 ft | 123 kts | 172° |
| 2026-04-20 11:42 | -20.26513 | -40.27858 | 251 ft | 168 kts | 174° |
| 2026-04-20 11:42 | -20.27684 | -40.27706 | 1158 ft | 170 kts | 178° |
| 2026-04-20 11:43 | -20.28849 | -40.27609 | 2208 ft | 165 kts | 178° |
| 2026-04-20 11:43 | -20.30064 | -40.27435 | 2706 ft | 191 kts | 173° |
| 2026-04-20 11:43 | -20.31464 | -40.27194 | 2927 ft | 216 kts | 173° |
| 2026-04-20 11:43 | -20.32987 | -40.26944 | 3306 ft | 229 kts | 173° |
| 2026-04-20 11:44 | -20.34604 | -40.26693 | 3722 ft | 245 kts | 172° |
| 2026-04-20 11:44 | -20.36343 | -40.26705 | 4160 ft | 258 kts | 197° |
| 2026-04-20 11:44 | -20.37870 | -40.27700 | 4994 ft | 262 kts | 227° |
| 2026-04-20 11:44 | -20.38758 | -40.29394 | 5833 ft | 266 kts | 254° |
| 2026-04-20 11:45 | -20.39062 | -40.31351 | 6656 ft | 268 kts | 264° |
| 2026-04-20 11:45 | -20.39193 | -40.33343 | 7475 ft | 272 kts | 266° |
| 2026-04-20 11:45 | -20.39297 | -40.35370 | 8319 ft | 275 kts | 266° |
| 2026-04-20 11:45 | -20.39406 | -40.37425 | 9106 ft | 280 kts | 265° |
| 2026-04-20 11:46 | -20.39526 | -40.39511 | 9735 ft | 283 kts | 265° |
| 2026-04-20 11:46 | -20.39655 | -40.41603 | 10038 ft | 284 kts | 265° |
| 2026-04-20 11:46 | -20.39791 | -40.43711 | 10056 ft | 285 kts | 265° |
| 2026-04-20 11:46 | -20.39931 | -40.45824 | 10078 ft | 287 kts | 265° |
| 2026-04-20 11:47 | -20.40072 | -40.47920 | 10068 ft | 286 kts | 265° |
| 2026-04-20 11:47 | -20.40214 | -40.50032 | 10077 ft | 285 kts | 265° |
| 2026-04-20 11:47 | -20.40356 | -40.52140 | 10076 ft | 285 kts | 265° |
| 2026-04-20 11:47 | -20.40500 | -40.54245 | 10087 ft | 284 kts | 265° |
| 2026-04-20 11:48 | -20.40644 | -40.56353 | 10085 ft | 284 kts | 265° |
| 2026-04-20 11:48 | -20.40786 | -40.58449 | 10089 ft | 283 kts | 264° |
| 2026-04-20 11:48 | -20.41261 | -40.60465 | 10097 ft | 281 kts | 242° |
| 2026-04-20 11:48 | -20.42466 | -40.62102 | 10209 ft | 288 kts | 220° |
| 2026-04-20 11:49 | -20.44122 | -40.63410 | 10408 ft | 311 kts | 216° |
| 2026-04-20 11:49 | -20.45974 | -40.64769 | 10574 ft | 335 kts | 215° |
| 2026-04-20 11:49 | -20.47951 | -40.66201 | 10903 ft | 350 kts | 215° |
| 2026-04-20 11:49 | -20.49988 | -40.67680 | 11510 ft | 355 kts | 215° |
| 2026-04-20 11:50 | -20.52033 | -40.69174 | 12221 ft | 357 kts | 215° |
| 2026-04-20 11:50 | -20.54090 | -40.70686 | 12866 ft | 361 kts | 215° |
| 2026-04-20 11:50 | -20.56167 | -40.72218 | 13485 ft | 365 kts | 215° |
| 2026-04-20 11:50 | -20.58264 | -40.73769 | 14100 ft | 368 kts | 215° |
| 2026-04-20 11:51 | -20.60376 | -40.75333 | 14675 ft | 371 kts | 215° |
| 2026-04-20 11:51 | -20.62501 | -40.76908 | 15243 ft | 373 kts | 215° |
| 2026-04-20 11:51 | -20.64649 | -40.78500 | 15777 ft | 377 kts | 215° |
| 2026-04-20 11:51 | -20.66813 | -40.80106 | 16327 ft | 380 kts | 215° |
| 2026-04-20 11:52 | -20.68991 | -40.81726 | 16897 ft | 383 kts | 216° |
| 2026-04-20 11:52 | -20.70982 | -40.83621 | 17394 ft | 386 kts | 227° |
| 2026-04-20 11:52 | -20.72775 | -40.85774 | 17969 ft | 388 kts | 229° |
| 2026-04-20 11:52 | -20.74527 | -40.87944 | 18486 ft | 391 kts | 229° |
| 2026-04-20 11:53 | -20.76314 | -40.90146 | 18973 ft | 393 kts | 229° |
| 2026-04-20 11:53 | -20.78120 | -40.92340 | 19525 ft | 393 kts | 228° |
| 2026-04-20 11:53 | -20.79942 | -40.94529 | 20047 ft | 393 kts | 228° |
| 2026-04-20 11:53 | -20.81774 | -40.96717 | 20511 ft | 395 kts | 227° |
| 2026-04-20 11:54 | -20.83615 | -40.98910 | 20978 ft | 397 kts | 227° |
| 2026-04-20 11:54 | -20.85469 | -41.01121 | 21403 ft | 400 kts | 227° |
| 2026-04-20 11:54 | -20.87330 | -41.03347 | 21865 ft | 402 kts | 228° |
| 2026-04-20 11:54 | -20.89188 | -41.05577 | 22460 ft | 399 kts | 228° |
| 2026-04-20 11:55 | -20.91034 | -41.07796 | 22935 ft | 401 kts | 228° |
| 2026-04-20 11:55 | -20.92877 | -41.10012 | 23260 ft | 406 kts | 228° |
| 2026-04-20 11:55 | -20.94761 | -41.12280 | 23635 ft | 409 kts | 228° |
| 2026-04-20 11:55 | -20.96654 | -41.14559 | 23977 ft | 411 kts | 228° |
| 2026-04-20 11:56 | -20.98556 | -41.16848 | 24306 ft | 412 kts | 228° |
| 2026-04-20 11:56 | -21.00466 | -41.19148 | 24611 ft | 415 kts | 228° |
| 2026-04-20 11:56 | -21.02393 | -41.21469 | 24885 ft | 418 kts | 228° |
| 2026-04-20 11:56 | -21.04329 | -41.23804 | 25213 ft | 420 kts | 228° |
| 2026-04-20 11:57 | -21.06277 | -41.26152 | 25522 ft | 423 kts | 228° |
| 2026-04-20 11:57 | -21.08234 | -41.28513 | 25817 ft | 425 kts | 227° |
| 2026-04-20 11:57 | -21.10203 | -41.30889 | 26116 ft | 427 kts | 227° |
| 2026-04-20 11:57 | -21.12184 | -41.33280 | 26389 ft | 430 kts | 227° |
| 2026-04-20 11:58 | -21.14176 | -41.35686 | 26672 ft | 432 kts | 227° |
| 2026-04-20 11:58 | -21.16180 | -41.38109 | 26960 ft | 434 kts | 227° |
| 2026-04-20 11:58 | -21.18158 | -41.40500 | 27347 ft | 433 kts | 227° |
| 2026-04-20 11:58 | -21.20152 | -41.42912 | 27783 ft | 432 kts | 227° |
| 2026-04-20 11:59 | -21.22145 | -41.45324 | 28173 ft | 432 kts | 227° |
| 2026-04-20 11:59 | -21.24134 | -41.47733 | 28547 ft | 432 kts | 227° |
| 2026-04-20 11:59 | -21.26132 | -41.50152 | 28936 ft | 432 kts | 227° |
| 2026-04-20 11:59 | -21.28124 | -41.52565 | 29336 ft | 431 kts | 227° |
| 2026-04-20 12:00 | -21.30113 | -41.54975 | 29734 ft | 431 kts | 227° |
| 2026-04-20 12:00 | -21.32104 | -41.57384 | 30094 ft | 431 kts | 227° |
| 2026-04-20 12:00 | -21.35422 | -41.61395 | 30099 ft | 433 kts | 227° |
| 2026-04-20 12:01 | -21.39404 | -41.66213 | 30101 ft | 430 kts | 227° |
| 2026-04-20 12:01 | -21.44002 | -41.71783 | 30086 ft | 420 kts | 227° |
| 2026-04-20 12:02 | -21.47189 | -41.75650 | 30094 ft | 411 kts | 227° |
| 2026-04-20 12:02 | -21.51019 | -41.80296 | 30124 ft | 425 kts | 227° |
| 2026-04-20 12:03 | -21.54992 | -41.85119 | 30104 ft | 432 kts | 227° |
| 2026-04-20 12:03 | -21.56981 | -41.87538 | 29460 ft | 434 kts | 227° |
| 2026-04-20 12:03 | -21.58960 | -41.89947 | 29156 ft | 424 kts | 227° |
| 2026-04-20 12:04 | -21.60887 | -41.92294 | 28874 ft | 414 kts | 227° |
| 2026-04-20 12:04 | -21.62771 | -41.94589 | 28603 ft | 405 kts | 227° |
| 2026-04-20 12:04 | -21.64618 | -41.96840 | 28340 ft | 397 kts | 227° |
| 2026-04-20 12:04 | -21.66426 | -41.99042 | 28080 ft | 389 kts | 227° |
| 2026-04-20 12:05 | -21.68209 | -42.01215 | 27824 ft | 384 kts | 227° |
| 2026-04-20 12:05 | -21.69984 | -42.03377 | 27582 ft | 386 kts | 227° |
| 2026-04-20 12:05 | -21.71774 | -42.05559 | 27343 ft | 389 kts | 227° |
| 2026-04-20 12:05 | -21.73539 | -42.07712 | 27102 ft | 387 kts | 227° |
| 2026-04-20 12:06 | -21.75317 | -42.09884 | 26849 ft | 384 kts | 227° |
| 2026-04-20 12:06 | -21.77076 | -42.12032 | 26616 ft | 381 kts | 227° |
| 2026-04-20 12:06 | -21.78820 | -42.14165 | 26381 ft | 379 kts | 227° |
| 2026-04-20 12:06 | -21.80559 | -42.16289 | 26138 ft | 377 kts | 227° |
| 2026-04-20 12:07 | -21.82289 | -42.18404 | 25898 ft | 375 kts | 227° |
| 2026-04-20 12:07 | -21.84068 | -42.20439 | 25651 ft | 372 kts | 219° |
| 2026-04-20 12:07 | -21.86209 | -42.21974 | 25442 ft | 369 kts | 209° |
| 2026-04-20 12:07 | -21.88452 | -42.23312 | 25204 ft | 368 kts | 208° |
| 2026-04-20 12:08 | -21.90701 | -42.24619 | 24982 ft | 367 kts | 208° |
| 2026-04-20 12:08 | -21.92940 | -42.25928 | 24753 ft | 366 kts | 208° |
| 2026-04-20 12:08 | -21.95166 | -42.27248 | 24540 ft | 365 kts | 209° |
| 2026-04-20 12:08 | -21.97383 | -42.28575 | 24313 ft | 364 kts | 209° |
| 2026-04-20 12:09 | -21.99565 | -42.29890 | 24095 ft | 363 kts | 209° |
| 2026-04-20 12:09 | -22.01766 | -42.31220 | 23876 ft | 361 kts | 209° |
| 2026-04-20 12:09 | -22.03958 | -42.32545 | 23642 ft | 360 kts | 209° |
| 2026-04-20 12:09 | -22.06137 | -42.33864 | 23388 ft | 359 kts | 209° |
| 2026-04-20 12:10 | -22.08278 | -42.35231 | 23105 ft | 357 kts | 217° |
| 2026-04-20 12:10 | -22.10011 | -42.37148 | 22854 ft | 357 kts | 232° |
| 2026-04-20 12:10 | -22.11200 | -42.39502 | 22592 ft | 361 kts | 248° |
| 2026-04-20 12:10 | -22.11927 | -42.42094 | 22355 ft | 361 kts | 252° |
| 2026-04-20 12:11 | -22.12549 | -42.44715 | 22099 ft | 360 kts | 253° |
| 2026-04-20 12:11 | -22.13142 | -42.47335 | 21848 ft | 360 kts | 253° |
| 2026-04-20 12:11 | -22.13739 | -42.49957 | 21591 ft | 359 kts | 253° |
| 2026-04-20 12:11 | -22.14343 | -42.52566 | 21357 ft | 358 kts | 252° |
| 2026-04-20 12:12 | -22.14956 | -42.55166 | 21113 ft | 357 kts | 252° |
| 2026-04-20 12:12 | -22.15565 | -42.57726 | 20865 ft | 357 kts | 252° |
| 2026-04-20 12:12 | -22.16184 | -42.60315 | 20631 ft | 356 kts | 252° |
| 2026-04-20 12:12 | -22.16804 | -42.62899 | 20392 ft | 355 kts | 252° |
| 2026-04-20 12:13 | -22.17423 | -42.65474 | 20156 ft | 354 kts | 252° |
| 2026-04-20 12:13 | -22.18040 | -42.68047 | 19924 ft | 353 kts | 252° |
| 2026-04-20 12:13 | -22.18652 | -42.70597 | 19653 ft | 349 kts | 252° |
| 2026-04-20 12:13 | -22.19254 | -42.73117 | 19424 ft | 345 kts | 252° |
| 2026-04-20 12:14 | -22.19853 | -42.75614 | 19227 ft | 343 kts | 252° |
| 2026-04-20 12:14 | -22.20450 | -42.78110 | 19181 ft | 344 kts | 252° |
| 2026-04-20 12:14 | -22.21060 | -42.80651 | 19155 ft | 352 kts | 252° |
| 2026-04-20 12:14 | -22.21673 | -42.83212 | 19144 ft | 352 kts | 252° |
| 2026-04-20 12:15 | -22.22271 | -42.85722 | 19121 ft | 347 kts | 252° |
| 2026-04-20 12:15 | -22.22880 | -42.88279 | 19141 ft | 347 kts | 252° |
| 2026-04-20 12:15 | -22.23476 | -42.90778 | 19137 ft | 349 kts | 252° |
| 2026-04-20 12:15 | -22.24084 | -42.93326 | 19137 ft | 350 kts | 252° |
| 2026-04-20 12:16 | -22.24690 | -42.95868 | 19142 ft | 350 kts | 252° |
| 2026-04-20 12:16 | -22.25296 | -42.98416 | 19139 ft | 351 kts | 252° |
| 2026-04-20 12:16 | -22.25904 | -43.00971 | 19139 ft | 351 kts | 252° |
| 2026-04-20 12:16 | -22.26511 | -43.03527 | 19020 ft | 352 kts | 252° |
| 2026-04-20 12:17 | -22.27121 | -43.06099 | 18665 ft | 353 kts | 252° |
| 2026-04-20 12:17 | -22.27728 | -43.08660 | 18329 ft | 352 kts | 252° |
| 2026-04-20 12:17 | -22.28333 | -43.11218 | 17960 ft | 349 kts | 252° |
| 2026-04-20 12:17 | -22.28924 | -43.13713 | 17623 ft | 346 kts | 252° |
| 2026-04-20 12:18 | -22.29515 | -43.16213 | 17298 ft | 342 kts | 252° |
| 2026-04-20 12:18 | -22.30100 | -43.18683 | 16973 ft | 339 kts | 252° |
| 2026-04-20 12:18 | -22.30681 | -43.21141 | 16659 ft | 336 kts | 252° |
| 2026-04-20 12:18 | -22.31256 | -43.23574 | 16354 ft | 333 kts | 253° |
| 2026-04-20 12:19 | -22.31827 | -43.25993 | 16034 ft | 331 kts | 253° |
| 2026-04-20 12:19 | -22.32395 | -43.28403 | 15727 ft | 330 kts | 253° |
| 2026-04-20 12:19 | -22.32959 | -43.30798 | 15423 ft | 328 kts | 253° |
| 2026-04-20 12:19 | -22.33522 | -43.33186 | 15112 ft | 327 kts | 253° |
| 2026-04-20 12:20 | -22.34083 | -43.35569 | 14814 ft | 327 kts | 253° |
| 2026-04-20 12:20 | -22.34644 | -43.37951 | 14491 ft | 327 kts | 253° |
| 2026-04-20 12:20 | -22.35201 | -43.40324 | 14206 ft | 326 kts | 253° |
| 2026-04-20 12:20 | -22.35753 | -43.42672 | 13873 ft | 326 kts | 253° |
| 2026-04-20 12:21 | -22.36310 | -43.45045 | 13539 ft | 326 kts | 253° |
| 2026-04-20 12:21 | -22.37191 | -43.47265 | 13209 ft | 321 kts | 233° |
| 2026-04-20 12:21 | -22.38759 | -43.48999 | 12750 ft | 321 kts | 214° |
| 2026-04-20 12:21 | -22.40749 | -43.50084 | 12273 ft | 322 kts | 201° |
| 2026-04-20 12:22 | -22.42850 | -43.50944 | 11768 ft | 322 kts | 201° |
| 2026-04-20 12:22 | -22.44904 | -43.51769 | 11275 ft | 316 kts | 201° |
| 2026-04-20 12:22 | -22.46951 | -43.52596 | 10778 ft | 312 kts | 201° |
| 2026-04-20 12:22 | -22.48964 | -43.53429 | 10281 ft | 309 kts | 201° |
| 2026-04-20 12:23 | -22.50946 | -43.54256 | 10034 ft | 297 kts | 202° |
| 2026-04-20 12:23 | -22.52808 | -43.55035 | 9998 ft | 278 kts | 202° |
| 2026-04-20 12:23 | -22.54585 | -43.55756 | 9726 ft | 270 kts | 196° |
| 2026-04-20 12:23 | -22.56451 | -43.55881 | 9257 ft | 272 kts | 172° |
| 2026-04-20 12:24 | -22.58248 | -43.55263 | 8845 ft | 271 kts | 158° |
| 2026-04-20 12:24 | -22.59941 | -43.54371 | 8380 ft | 270 kts | 155° |
| 2026-04-20 12:24 | -22.61597 | -43.53465 | 7943 ft | 269 kts | 155° |
| 2026-04-20 12:24 | -22.63267 | -43.52563 | 7523 ft | 267 kts | 154° |
| 2026-04-20 12:25 | -22.64720 | -43.51331 | 7116 ft | 268 kts | 130° |
| 2026-04-20 12:25 | -22.65818 | -43.49706 | 6709 ft | 267 kts | 127° |
| 2026-04-20 12:25 | -22.66892 | -43.48059 | 6282 ft | 265 kts | 127° |
| 2026-04-20 12:25 | -22.67946 | -43.46437 | 5987 ft | 261 kts | 128° |
| 2026-04-20 12:26 | -22.69017 | -43.44898 | 5862 ft | 250 kts | 129° |
| 2026-04-20 12:26 | -22.70049 | -43.43395 | 5504 ft | 251 kts | 128° |
| 2026-04-20 12:26 | -22.71081 | -43.41837 | 4938 ft | 258 kts | 127° |
| 2026-04-20 12:26 | -22.72122 | -43.40243 | 4261 ft | 257 kts | 127° |
| 2026-04-20 12:27 | -22.73146 | -43.38683 | 3568 ft | 252 kts | 127° |
| 2026-04-20 12:27 | -22.74148 | -43.37171 | 2916 ft | 249 kts | 127° |
| 2026-04-20 12:27 | -22.75133 | -43.35650 | 2250 ft | 244 kts | 128° |
| 2026-04-20 12:27 | -22.76103 | -43.34195 | 1921 ft | 233 kts | 126° |
| 2026-04-20 12:28 | -22.77046 | -43.32752 | 1842 ft | 234 kts | 127° |
| 2026-04-20 12:28 | -22.77988 | -43.31320 | 1460 ft | 232 kts | 127° |
| 2026-04-20 12:28 | -22.78947 | -43.29876 | 816 ft | 233 kts | 124° |
| 2026-04-20 12:28 | -22.79827 | -43.28495 | 586 ft | 217 kts | 124° |
| 2026-04-20 12:29 | -22.80689 | -43.27178 | 238 ft | 205 kts | 124° |
| 2026-04-20 12:29 | -22.81472 | -43.26012 | 47 ft | 176 kts | 124° |
| 2026-04-20 12:29 | -22.82120 | -43.25029 | 23 ft | 141 kts | 126° |
| 2026-04-20 12:29 | -22.82456 | -43.24518 | 18 ft | 30 kts | 127° |
| 2026-04-20 12:30 | -22.82534 | -43.24409 | 20 ft | 15 kts | 127° |
| 2026-04-20 12:30 | -22.82526 | -43.24320 | 21 ft | 12 kts | 40° |
| 2026-04-20 12:30 | -22.82471 | -43.24291 | 20 ft | 8 kts | 19° |
| 2026-04-20 12:30 | -22.82426 | -43.24314 | 19 ft | 8 kts | 307° |
| 2026-04-20 12:31 | -22.82394 | -43.24362 | 18 ft | 8 kts | 306° |
| 2026-04-20 12:31 | -22.82361 | -43.24413 | 17 ft | 8 kts | 305° |
| 2026-04-20 12:31 | -22.82328 | -43.24463 | 18 ft | 8 kts | 305° |
| 2026-04-20 12:31 | -22.82296 | -43.24512 | 18 ft | 8 kts | 305° |
| 2026-04-20 12:32 | -22.82261 | -43.24563 | 19 ft | 10 kts | 307° |
| 2026-04-20 12:32 | -22.82210 | -43.24636 | 18 ft | 15 kts | 307° |
| 2026-04-20 12:32 | -22.82142 | -43.24730 | 19 ft | 16 kts | 322° |
| 2026-04-20 12:32 | -22.82046 | -43.24695 | 22 ft | 15 kts | 41° |
| 2026-04-20 12:33 | -22.81981 | -43.24635 | 20 ft | 10 kts | 38° |
| 2026-04-20 12:33 | -22.81917 | -43.24607 | 20 ft | 10 kts | 358° |
| 2026-04-20 12:33 | -22.81853 | -43.24584 | 20 ft | 10 kts | 32° |
| 2026-04-20 12:33 | -22.81793 | -43.24556 | 21 ft | 9 kts | 358° |
| 2026-04-20 12:34 | -22.81728 | -43.24563 | 21 ft | 9 kts | 6° |
| 2026-04-20 12:34 | -22.81672 | -43.24540 | 21 ft | 7 kts | 22° |
| 2026-04-20 12:34 | -22.81641 | -43.24526 | 23 ft | 2 kts | 22° |